createdAt,value
2023-05-12T00:00:37.116Z,21.60
2023-05-12T00:03:12.926Z,18.40
2023-05-12T00:05:40.772Z,19.70
2023-05-12T00:08:08.647Z,15.40
2023-05-12T00:10:37.057Z,16.90
2023-05-12T00:13:04.989Z,15.10
2023-05-12T00:15:32.970Z,13.50
2023-05-12T00:18:00.922Z,18.90
2023-05-12T00:20:28.849Z,27.70
2023-05-12T00:22:56.896Z,25.80
2023-05-12T00:25:24.895Z,27.90
2023-05-12T00:27:52.694Z,24.20
2023-05-12T00:30:21.330Z,29.00
2023-05-12T00:32:49.526Z,21.10
2023-05-12T00:35:17.782Z,26.20
2023-05-12T00:37:45.581Z,35.90
2023-05-12T00:40:13.500Z,28.00
2023-05-12T00:42:41.638Z,23.40
2023-05-12T00:45:10.084Z,22.20
2023-05-12T00:47:38.072Z,19.60
2023-05-12T00:50:08.581Z,19.50
2023-05-12T00:52:36.781Z,19.70
2023-05-12T00:55:05.754Z,16.80
2023-05-12T00:57:33.870Z,16.10
2023-05-12T01:00:01.823Z,14.50
2023-05-12T01:02:29.751Z,16.70
2023-05-12T01:04:57.683Z,15.30
2023-05-12T01:07:28.026Z,15.50
2023-05-12T01:09:56.922Z,16.40
2023-05-12T01:12:26.819Z,12.70
2023-05-12T01:14:57.000Z,14.70
2023-05-12T01:17:36.079Z,11.50
2023-05-12T01:20:08.420Z,13.90
2023-05-12T01:22:39.046Z,12.30
2023-05-12T01:25:13.002Z,12.10
2023-05-12T01:27:42.995Z,10.40
2023-05-12T01:30:16.904Z,10.40
2023-05-12T01:32:44.869Z,13.40
2023-05-12T01:35:12.743Z,13.40
2023-05-12T01:37:40.624Z,13.90
2023-05-12T01:40:09.054Z,11.70
2023-05-12T01:42:41.092Z,11.20
2023-05-12T01:45:09.849Z,12.60
2023-05-12T01:47:37.790Z,12.50
2023-05-12T01:50:06.966Z,11.10
2023-05-12T01:52:35.125Z,9.60
2023-05-12T01:55:03.097Z,10.70
2023-05-12T01:57:30.975Z,9.80
2023-05-12T01:59:58.834Z,11.80
2023-05-12T02:02:26.741Z,12.80
2023-05-12T02:04:54.755Z,10.60
2023-05-12T02:07:23.004Z,9.80
2023-05-12T02:09:51.291Z,10.30
2023-05-12T02:12:19.082Z,9.00
2023-05-12T02:14:46.858Z,9.10
2023-05-12T02:17:14.669Z,9.60
2023-05-12T02:19:42.496Z,9.30
2023-05-12T02:22:10.304Z,12.40
2023-05-12T02:24:38.086Z,8.90
2023-05-12T02:27:06.096Z,9.70
2023-05-12T02:29:33.857Z,11.70
2023-05-12T02:32:01.841Z,8.40
2023-05-12T02:34:29.810Z,10.50
2023-05-12T02:36:57.528Z,11.20
2023-05-12T02:39:25.345Z,9.50
2023-05-12T02:41:53.148Z,8.70
2023-05-12T02:44:22.525Z,8.50
2023-05-12T02:46:50.412Z,10.30
2023-05-12T02:49:18.279Z,10.60
2023-05-12T02:51:46.531Z,11.90
2023-05-12T02:54:14.252Z,13.10
2023-05-12T02:56:42.096Z,9.00
2023-05-12T02:59:09.897Z,11.60
2023-05-12T03:01:37.977Z,8.10
2023-05-12T03:04:06.025Z,9.30
2023-05-12T03:06:33.853Z,8.90
2023-05-12T03:09:01.665Z,8.80
2023-05-12T03:11:29.454Z,11.40
2023-05-12T03:13:57.218Z,9.60
2023-05-12T03:16:25.140Z,10.40
2023-05-12T03:18:53.868Z,10.70
2023-05-12T03:21:22.375Z,8.60
2023-05-12T03:23:50.163Z,8.00
2023-05-12T03:26:18.545Z,11.00
2023-05-12T03:28:46.400Z,7.90
2023-05-12T03:31:14.218Z,9.30
2023-05-12T03:33:42.011Z,12.90
2023-05-12T03:36:10.441Z,10.70
2023-05-12T03:38:38.262Z,9.90
2023-05-12T03:41:07.210Z,9.30
2023-05-12T03:43:36.044Z,8.90
2023-05-12T03:46:04.151Z,9.80
2023-05-12T03:48:32.239Z,10.10
2023-05-12T03:51:00.482Z,9.40
2023-05-12T03:53:28.432Z,8.30
2023-05-12T03:55:56.291Z,9.70
2023-05-12T03:58:24.744Z,8.20
2023-05-12T04:00:52.498Z,9.80
2023-05-12T04:03:20.318Z,9.90
2023-05-12T04:05:48.180Z,7.50
2023-05-12T04:08:16.101Z,10.30
2023-05-12T04:10:43.946Z,7.90
2023-05-12T04:13:11.769Z,9.00
2023-05-12T04:15:39.992Z,7.60
2023-05-12T04:18:07.692Z,7.40
2023-05-12T04:20:35.538Z,8.60
2023-05-12T04:23:03.356Z,20.20
2023-05-12T04:25:31.268Z,15.80
2023-05-12T04:27:59.248Z,25.70
2023-05-12T04:30:27.051Z,18.60
2023-05-12T04:32:54.944Z,14.60
2023-05-12T04:35:22.786Z,12.10
2023-05-12T04:37:51.184Z,14.70
2023-05-12T04:40:19.272Z,9.60
2023-05-12T04:42:47.414Z,11.50
2023-05-12T04:45:15.198Z,13.40
2023-05-12T04:47:43.055Z,10.30
2023-05-12T04:50:11.707Z,12.00
2023-05-12T04:52:39.585Z,13.30
2023-05-12T04:55:08.835Z,12.30
2023-05-12T04:57:36.718Z,9.60
2023-05-12T05:00:07.154Z,9.30
2023-05-12T05:02:35.162Z,10.70
2023-05-12T05:05:03.237Z,9.90
2023-05-12T05:07:31.267Z,12.80
2023-05-12T05:09:59.136Z,12.60
2023-05-12T05:12:26.899Z,12.90
2023-05-12T05:14:54.856Z,10.30
2023-05-12T05:17:22.763Z,10.60
2023-05-12T05:19:58.330Z,12.10
2023-05-12T05:22:27.510Z,10.70
2023-05-12T05:24:55.429Z,10.80
2023-05-12T05:27:23.204Z,9.00
2023-05-12T05:29:51.329Z,8.70
2023-05-12T05:32:19.124Z,12.20
2023-05-12T05:34:46.890Z,6.80
2023-05-12T05:37:14.699Z,10.40
2023-05-12T05:39:42.640Z,8.20
2023-05-12T05:42:10.443Z,7.30
2023-05-12T05:44:38.264Z,7.80
2023-05-12T05:47:06.174Z,8.40
2023-05-12T05:49:34.026Z,8.60
2023-05-12T05:52:01.789Z,8.60
2023-05-12T05:54:29.524Z,8.90
2023-05-12T05:56:57.403Z,11.10
2023-05-12T05:59:25.562Z,9.20
2023-05-12T06:01:53.418Z,10.40
2023-05-12T06:04:21.401Z,9.70
2023-05-12T06:06:49.225Z,10.50
2023-05-12T06:09:17.251Z,9.70
2023-05-12T06:11:45.106Z,8.90
2023-05-12T06:14:13.018Z,8.50
2023-05-12T06:16:40.871Z,8.40
2023-05-12T06:19:09.518Z,9.60
2023-05-12T06:21:37.383Z,9.50
2023-05-12T06:24:05.376Z,12.50
2023-05-12T06:26:33.488Z,21.00
2023-05-12T06:29:01.305Z,18.00
2023-05-12T06:31:29.312Z,9.40
2023-05-12T06:33:57.153Z,9.80
2023-05-12T06:36:24.975Z,8.40
2023-05-12T06:38:53.992Z,12.10
2023-05-12T06:41:23.984Z,13.50
2023-05-12T06:43:52.253Z,10.80
2023-05-12T06:46:20.233Z,10.60
2023-05-12T06:48:48.076Z,8.10
2023-05-12T06:51:15.921Z,8.80
2023-05-12T06:53:43.773Z,8.30
2023-05-12T06:56:12.335Z,9.00
2023-05-12T06:58:40.118Z,9.40
2023-05-12T07:01:08.098Z,11.60
2023-05-12T07:03:36.255Z,10.60
2023-05-12T07:06:04.393Z,10.20
2023-05-12T07:08:32.344Z,9.20
2023-05-12T07:11:03.166Z,9.70
2023-05-12T07:13:31.073Z,7.30
2023-05-12T07:15:59.942Z,7.50
2023-05-12T07:18:27.791Z,7.60
2023-05-12T07:20:55.829Z,9.40
2023-05-12T07:23:23.568Z,8.00
2023-05-12T07:25:51.419Z,9.00
2023-05-12T07:28:19.288Z,9.60
2023-05-12T07:30:47.461Z,19.70
2023-05-12T07:33:15.379Z,10.80
2023-05-12T07:35:43.561Z,8.50
2023-05-12T07:38:11.349Z,11.80
2023-05-12T07:40:39.089Z,7.80
2023-05-12T07:43:06.865Z,9.00
2023-05-12T07:45:34.663Z,7.60
2023-05-12T07:48:02.659Z,9.00
2023-05-12T07:50:30.699Z,9.80
2023-05-12T07:52:58.452Z,10.70
2023-05-12T07:55:26.647Z,11.10
2023-05-12T07:57:54.445Z,11.50
2023-05-12T08:00:22.441Z,14.10
2023-05-12T08:02:50.326Z,11.20
2023-05-12T08:05:18.399Z,9.20
2023-05-12T08:07:46.475Z,7.60
2023-05-12T08:10:14.347Z,10.60
2023-05-12T08:12:42.922Z,11.10
2023-05-12T08:15:11.474Z,10.20
2023-05-12T08:17:39.435Z,8.30
2023-05-12T08:20:09.162Z,10.90
2023-05-12T08:22:36.976Z,8.50
2023-05-12T08:25:06.137Z,6.90
2023-05-12T08:27:33.972Z,16.30
2023-05-12T08:30:01.828Z,7.20
2023-05-12T08:32:29.706Z,10.90
2023-05-12T08:34:57.647Z,10.20
2023-05-12T08:37:26.330Z,6.10
2023-05-12T08:39:54.395Z,5.80
2023-05-12T08:42:44.566Z,6.20
2023-05-12T08:45:12.587Z,7.60
2023-05-12T08:47:43.792Z,6.70
2023-05-12T08:50:14.403Z,8.60
2023-05-12T08:52:42.395Z,7.40
2023-05-12T08:55:11.276Z,6.70
2023-05-12T08:57:45.546Z,9.00
2023-05-12T09:00:15.328Z,6.70
2023-05-12T09:02:52.887Z,4.90
2023-05-12T09:05:23.466Z,6.20
2023-05-12T09:07:55.942Z,6.80
2023-05-12T09:10:34.976Z,5.10
2023-05-12T09:13:23.570Z,6.30
2023-05-12T09:15:56.860Z,8.00
2023-05-12T09:18:24.904Z,5.60
2023-05-12T09:20:52.783Z,7.00
2023-05-12T09:23:23.272Z,6.80
2023-05-12T09:26:01.848Z,6.80
2023-05-12T09:28:38.351Z,6.50
2023-05-12T09:31:23.142Z,5.90
2023-05-12T09:33:52.555Z,5.00
2023-05-12T09:36:23.014Z,4.40
2023-05-12T09:39:04.884Z,9.50
2023-05-12T09:41:37.830Z,8.70
2023-05-12T09:44:08.631Z,7.10
2023-05-12T09:46:38.655Z,12.10
2023-05-12T09:49:06.630Z,5.30
2023-05-12T09:51:34.550Z,5.10
2023-05-12T09:54:02.608Z,8.80
2023-05-12T09:56:32.551Z,7.30
2023-05-12T09:59:04.600Z,7.20
2023-05-12T10:01:32.672Z,6.10
2023-05-12T10:04:01.901Z,9.00
2023-05-12T10:06:41.557Z,7.70
2023-05-12T10:09:19.557Z,6.70
2023-05-12T10:11:51.950Z,5.90
2023-05-12T10:14:23.620Z,5.50
2023-05-12T10:16:52.912Z,7.60
2023-05-12T10:19:22.708Z,8.20
2023-05-12T10:21:51.338Z,6.60
2023-05-12T10:24:22.125Z,5.40
2023-05-12T10:26:50.860Z,6.00
2023-05-12T10:29:18.961Z,7.90
2023-05-12T10:31:48.047Z,9.10
2023-05-12T10:34:19.164Z,11.40
2023-05-12T10:36:50.276Z,6.80
2023-05-12T10:39:18.498Z,7.10
2023-05-12T10:41:46.319Z,5.70
2023-05-12T10:44:14.149Z,7.40
2023-05-12T10:46:42.336Z,7.50
2023-05-12T10:49:13.117Z,7.30
2023-05-12T10:51:50.074Z,5.50
2023-05-12T10:55:52.266Z,5.70
2023-05-12T10:58:20.891Z,5.70
2023-05-12T11:00:52.660Z,9.70
2023-05-12T11:03:25.834Z,7.60
2023-05-12T11:06:07.084Z,7.50
2023-05-12T11:08:37.817Z,5.20
2023-05-12T11:11:06.421Z,7.00
2023-05-12T11:13:35.782Z,7.20
2023-05-12T11:16:03.859Z,7.90
2023-05-12T11:18:31.838Z,7.00
2023-05-12T11:21:12.242Z,4.90
2023-05-12T11:23:40.126Z,5.40
2023-05-12T11:26:20.093Z,6.90
2023-05-12T11:28:47.958Z,8.00
2023-05-12T11:31:20.933Z,8.60
2023-05-12T11:33:55.946Z,6.80
2023-05-12T11:36:40.463Z,5.90
2023-05-12T11:39:16.174Z,9.50
2023-05-12T11:41:45.178Z,5.80
2023-05-12T11:44:15.965Z,11.20
2023-05-12T11:47:01.480Z,6.50
2023-05-12T11:49:31.620Z,6.30
2023-05-12T11:52:02.485Z,9.30
2023-05-12T11:54:31.412Z,9.30
2023-05-12T11:56:59.640Z,5.90
2023-05-12T11:59:33.439Z,7.40
2023-05-12T12:02:04.120Z,7.80
2023-05-12T12:04:37.057Z,6.20
2023-05-12T12:07:07.298Z,6.20
2023-05-12T12:09:41.958Z,6.30
2023-05-12T12:12:11.776Z,4.80
2023-05-12T12:14:41.703Z,5.30
2023-05-12T12:17:09.681Z,5.40
2023-05-12T12:19:37.523Z,5.30
2023-05-12T12:22:05.627Z,6.50
2023-05-12T12:24:33.672Z,8.10
2023-05-12T12:27:01.687Z,6.20
2023-05-12T12:29:29.581Z,4.80
2023-05-12T12:31:57.626Z,5.50
2023-05-12T12:34:25.464Z,6.20
2023-05-12T12:36:53.309Z,8.00
2023-05-12T12:39:22.009Z,4.60
2023-05-12T12:41:50.438Z,6.80
2023-05-12T12:44:18.280Z,6.40
2023-05-12T12:46:46.211Z,7.00
2023-05-12T12:49:14.595Z,5.70
2023-05-12T12:51:46.354Z,5.30
2023-05-12T12:54:15.866Z,5.70
2023-05-12T12:56:44.727Z,7.30
2023-05-12T12:59:13.062Z,5.00
2023-05-12T13:01:40.896Z,4.70
2023-05-12T13:04:08.787Z,6.80
2023-05-12T13:06:36.923Z,6.80
2023-05-12T13:09:05.267Z,6.40
2023-05-12T13:11:33.200Z,8.40
2023-05-12T13:14:02.453Z,5.90
2023-05-12T13:16:31.148Z,6.40
2023-05-12T13:18:59.054Z,5.10
2023-05-12T13:21:27.291Z,7.90
2023-05-12T13:23:55.133Z,7.10
2023-05-12T13:26:23.717Z,5.90
2023-05-12T13:28:51.499Z,8.60
2023-05-12T13:31:19.437Z,6.20
2023-05-12T13:33:47.964Z,6.70
2023-05-12T13:36:15.790Z,4.80
2023-05-12T13:38:43.653Z,9.80
2023-05-12T13:41:11.483Z,8.90
2023-05-12T13:43:39.497Z,9.50
2023-05-12T13:46:07.277Z,7.80
2023-05-12T13:48:35.904Z,4.60
2023-05-12T13:51:03.889Z,8.10
2023-05-12T13:53:32.358Z,9.20
2023-05-12T13:56:03.691Z,5.60
2023-05-12T13:58:31.965Z,6.00
2023-05-12T14:01:00.293Z,6.70
2023-05-12T14:03:28.114Z,5.20
2023-05-12T14:05:56.016Z,9.10
2023-05-12T14:08:23.963Z,5.60
2023-05-12T14:10:52.126Z,5.40
2023-05-12T14:13:20.254Z,6.70
2023-05-12T14:15:49.681Z,7.30
2023-05-12T14:18:18.358Z,5.80
2023-05-12T14:20:47.084Z,8.80
2023-05-12T14:23:15.093Z,5.80
2023-05-12T14:25:43.046Z,7.80
2023-05-12T14:28:11.114Z,8.10
2023-05-12T14:30:39.839Z,6.00
2023-05-12T14:33:08.269Z,11.10
2023-05-12T14:35:36.414Z,6.80
2023-05-12T14:38:04.666Z,5.00
2023-05-12T14:40:32.580Z,4.90
2023-05-12T14:43:00.344Z,5.20
2023-05-12T14:45:28.555Z,6.50
2023-05-12T14:47:56.463Z,6.80
2023-05-12T14:50:24.474Z,9.10
2023-05-12T14:52:52.930Z,6.00
2023-05-12T14:55:24.717Z,8.50
2023-05-12T14:57:54.217Z,6.10
2023-05-12T15:00:24.225Z,4.60
2023-05-12T15:02:52.521Z,8.20
2023-05-12T15:05:21.223Z,5.50
2023-05-12T15:07:54.028Z,5.90
2023-05-12T15:10:22.780Z,5.70
2023-05-12T15:12:53.739Z,6.00
2023-05-12T15:15:24.798Z,6.40
2023-05-12T15:17:54.729Z,5.50
2023-05-12T15:20:22.590Z,7.30
2023-05-12T15:22:54.602Z,8.50
2023-05-12T15:25:22.708Z,6.80
2023-05-12T15:27:51.166Z,8.50
2023-05-12T15:30:19.189Z,5.40
2023-05-12T15:32:47.719Z,7.50
2023-05-12T15:35:16.637Z,8.30
2023-05-12T15:37:44.519Z,7.60
2023-05-12T15:40:13.806Z,9.20
2023-05-12T15:42:41.610Z,8.20
2023-05-12T15:45:09.971Z,6.90
2023-05-12T15:47:37.936Z,6.80
2023-05-12T15:50:06.843Z,7.60
2023-05-12T15:52:34.805Z,11.60
2023-05-12T15:55:02.627Z,7.90
2023-05-12T15:57:30.457Z,7.70
2023-05-12T15:59:59.877Z,6.70
2023-05-12T16:02:28.000Z,6.60
2023-05-12T16:04:59.173Z,11.90
2023-05-12T16:07:29.784Z,7.00
2023-05-12T16:10:01.319Z,6.40
2023-05-12T16:12:31.587Z,7.30
2023-05-12T16:15:02.778Z,8.50
2023-05-12T16:17:31.386Z,11.30
2023-05-12T16:19:59.875Z,6.10
2023-05-12T16:22:28.313Z,6.00
2023-05-12T16:24:57.674Z,9.10
2023-05-12T16:27:25.718Z,7.50
2023-05-12T16:29:53.813Z,12.60
2023-05-12T16:32:21.983Z,7.00
2023-05-12T16:34:49.970Z,6.30
2023-05-12T16:37:19.007Z,9.80
2023-05-12T16:39:48.874Z,8.20
2023-05-12T16:42:19.731Z,7.50
2023-05-12T16:44:48.534Z,7.20
2023-05-12T16:47:16.390Z,7.30
2023-05-12T16:49:44.273Z,8.00
2023-05-12T16:52:12.624Z,7.10
2023-05-12T16:54:40.503Z,8.90
2023-05-12T16:57:08.305Z,8.40
2023-05-12T16:59:36.988Z,9.30
2023-05-12T17:02:05.821Z,10.00
2023-05-12T17:04:34.455Z,8.20
2023-05-12T17:07:03.576Z,8.50
2023-05-12T17:09:31.390Z,9.60
2023-05-12T17:11:59.656Z,8.20
2023-05-12T17:14:27.845Z,7.60
2023-05-12T17:16:55.703Z,8.90
2023-05-12T17:19:23.748Z,8.40
2023-05-12T17:21:52.252Z,5.70
2023-05-12T17:24:20.067Z,8.70
2023-05-12T17:26:47.917Z,7.50
2023-05-12T17:29:15.764Z,7.40
2023-05-12T17:31:43.914Z,8.50
2023-05-12T17:34:12.425Z,9.50
2023-05-12T17:36:42.948Z,9.30
2023-05-12T17:39:10.907Z,7.30
2023-05-12T17:41:39.102Z,7.40
2023-05-12T17:44:07.364Z,10.20
2023-05-12T17:46:35.480Z,7.80
2023-05-12T17:49:03.561Z,9.50
2023-05-12T17:51:31.883Z,6.50
2023-05-12T17:54:03.987Z,7.00
2023-05-12T17:56:35.293Z,6.30
2023-05-12T17:59:07.176Z,8.90
2023-05-12T18:01:35.772Z,10.70
2023-05-12T18:04:06.896Z,9.30
2023-05-12T18:06:35.043Z,6.30
2023-05-12T18:09:05.977Z,8.00
2023-05-12T18:11:35.110Z,9.00
2023-05-12T18:14:06.064Z,8.90
2023-05-12T18:16:34.522Z,9.60
2023-05-12T18:19:03.999Z,9.60
2023-05-12T18:21:34.841Z,7.80
2023-05-12T18:24:05.721Z,9.00
2023-05-12T18:26:34.062Z,8.50
2023-05-12T18:29:02.048Z,10.70
2023-05-12T18:31:30.337Z,9.40
2023-05-12T18:34:05.950Z,10.90
2023-05-12T18:36:43.848Z,7.60
2023-05-12T18:39:18.348Z,8.40
2023-05-12T18:41:51.591Z,9.80
2023-05-12T18:44:25.473Z,12.10
2023-05-12T18:47:04.337Z,8.20
2023-05-12T18:49:37.787Z,8.80
2023-05-12T18:52:06.689Z,7.80
2023-05-12T18:54:38.063Z,12.50
2023-05-12T18:57:10.939Z,10.30
2023-05-12T18:59:41.873Z,10.20
2023-05-12T19:02:15.129Z,10.20
2023-05-12T19:04:45.836Z,9.20
2023-05-12T19:07:15.663Z,8.80
2023-05-12T19:09:44.653Z,11.30
2023-05-12T19:12:12.560Z,10.90
2023-05-12T19:14:41.054Z,11.40
2023-05-12T19:17:08.979Z,12.60
2023-05-12T19:19:36.918Z,10.00
2023-05-12T19:22:05.039Z,11.40
2023-05-12T19:24:33.738Z,9.40
2023-05-12T19:27:01.804Z,10.20
2023-05-12T19:29:29.694Z,9.50
2023-05-12T19:31:57.697Z,11.60
2023-05-12T19:34:25.764Z,11.40
2023-05-12T19:36:53.713Z,12.10
2023-05-12T19:39:22.526Z,12.60
2023-05-12T19:41:51.785Z,11.00
2023-05-12T19:44:22.518Z,12.60
2023-05-12T19:46:51.157Z,11.30
2023-05-12T19:49:19.154Z,13.60
2023-05-12T19:51:48.792Z,11.50
2023-05-12T19:54:16.783Z,12.00
2023-05-12T19:56:44.569Z,10.90
2023-05-12T19:59:12.539Z,11.90
2023-05-12T20:01:41.700Z,13.20
2023-05-12T20:04:09.572Z,12.20
2023-05-12T20:06:37.637Z,15.40
2023-05-12T20:09:05.479Z,11.10
2023-05-12T20:11:33.180Z,11.40
2023-05-12T20:14:01.322Z,10.60
2023-05-12T20:16:30.068Z,13.80
2023-05-12T20:19:02.656Z,12.60
2023-05-12T20:21:33.994Z,12.50
2023-05-12T20:24:01.998Z,12.90
2023-05-12T20:26:30.803Z,16.00
2023-05-12T20:29:00.381Z,13.80
2023-05-12T20:31:28.624Z,12.40
2023-05-12T20:33:56.728Z,14.50
2023-05-12T20:36:24.440Z,11.60
2023-05-12T20:38:52.395Z,12.40
2023-05-12T20:41:20.194Z,13.00
2023-05-12T20:43:48.126Z,13.70
2023-05-12T20:46:15.966Z,12.90
2023-05-12T20:48:43.831Z,15.30
2023-05-12T20:51:13.083Z,14.10
2023-05-12T20:53:40.960Z,14.80
2023-05-12T20:56:08.973Z,15.30
2023-05-12T20:58:37.044Z,12.80
2023-05-12T21:01:05.017Z,13.00
2023-05-12T21:03:34.219Z,16.40
2023-05-12T21:06:04.899Z,13.90
2023-05-12T21:08:32.764Z,16.80
2023-05-12T21:11:01.016Z,13.00
2023-05-12T21:13:28.972Z,14.60
2023-05-12T21:15:56.915Z,14.70
2023-05-12T21:18:25.080Z,13.90
2023-05-12T21:20:53.186Z,15.00
2023-05-12T21:23:20.947Z,13.00
2023-05-12T21:25:49.304Z,15.10
2023-05-12T21:28:17.803Z,14.90
2023-05-12T21:30:45.564Z,13.50
2023-05-12T21:33:13.553Z,14.60
2023-05-12T21:35:41.605Z,14.20
2023-05-12T21:38:10.241Z,14.00
2023-05-12T21:40:38.919Z,12.20
2023-05-12T21:43:06.728Z,10.60
2023-05-12T21:45:34.488Z,12.50
2023-05-12T21:48:02.340Z,12.50
2023-05-12T21:50:30.334Z,13.40
2023-05-12T21:52:58.211Z,13.30
2023-05-12T21:55:26.541Z,14.20
2023-05-12T21:57:57.026Z,12.60
2023-05-12T22:00:25.070Z,10.80
2023-05-12T22:02:52.915Z,13.50
2023-05-12T22:05:20.917Z,14.90
2023-05-12T22:07:48.759Z,11.70
2023-05-12T22:10:16.823Z,14.70
2023-05-12T22:12:45.983Z,13.60
2023-05-12T22:15:13.861Z,11.30
2023-05-12T22:17:42.106Z,15.30
2023-05-12T22:20:11.063Z,14.70
2023-05-12T22:22:39.009Z,15.30
2023-05-12T22:25:07.648Z,18.10
2023-05-12T22:27:35.446Z,16.60
2023-05-12T22:30:04.180Z,13.00
2023-05-12T22:32:32.074Z,15.70
2023-05-12T22:34:59.935Z,14.50
2023-05-12T22:37:27.920Z,14.80
2023-05-12T22:39:55.759Z,13.20
2023-05-12T22:42:23.914Z,12.70
2023-05-12T22:44:52.148Z,14.80
2023-05-12T22:47:20.007Z,11.20
2023-05-12T22:49:47.813Z,18.50
2023-05-12T22:52:15.678Z,13.60
2023-05-12T22:54:43.426Z,12.90
2023-05-12T22:57:11.195Z,18.10
2023-05-12T22:59:38.982Z,16.90
2023-05-12T23:02:06.759Z,13.70
2023-05-12T23:04:34.553Z,14.00
2023-05-12T23:07:02.266Z,14.30
2023-05-12T23:09:30.076Z,15.10
2023-05-12T23:11:57.950Z,15.90
2023-05-12T23:14:25.736Z,14.10
2023-05-12T23:16:53.670Z,15.80
2023-05-12T23:19:24.126Z,12.80
2023-05-12T23:21:51.928Z,14.30
2023-05-12T23:24:19.770Z,17.00
2023-05-12T23:26:47.629Z,14.30
2023-05-12T23:29:15.423Z,11.90
2023-05-12T23:31:43.386Z,13.70
2023-05-12T23:34:11.281Z,12.90
2023-05-12T23:36:39.114Z,12.70
2023-05-12T23:39:06.882Z,17.50
2023-05-12T23:41:36.421Z,16.80
2023-05-12T23:44:04.500Z,13.50
2023-05-12T23:46:32.286Z,18.40
2023-05-12T23:49:00.189Z,13.90
2023-05-12T23:51:28.853Z,16.30
2023-05-12T23:53:56.674Z,15.80
2023-05-12T23:56:24.469Z,11.30
2023-05-12T23:58:52.288Z,14.90
